createdAt,value
2019-02-24T00:01:55.657Z,11.13
2019-02-24T00:04:28.052Z,10.83
2019-02-24T00:07:00.510Z,10.63
2019-02-24T00:09:33.135Z,11.27
2019-02-24T00:12:05.473Z,11.13
2019-02-24T00:14:37.986Z,11.47
2019-02-24T00:17:10.499Z,11.67
2019-02-24T00:19:42.871Z,11.73
2019-02-24T00:22:15.608Z,11.70
2019-02-24T00:24:48.033Z,11.67
2019-02-24T00:27:20.648Z,13.07
2019-02-24T00:29:52.973Z,12.17
2019-02-24T00:32:25.363Z,11.53
2019-02-24T00:34:57.762Z,11.57
2019-02-24T00:37:30.151Z,11.17
2019-02-24T00:40:02.500Z,11.37
2019-02-24T00:42:35.350Z,12.00
2019-02-24T00:45:10.272Z,11.80
2019-02-24T00:47:42.903Z,11.73
2019-02-24T00:50:15.558Z,10.30
2019-02-24T00:52:48.448Z,10.97
2019-02-24T00:55:21.203Z,10.90
2019-02-24T00:57:53.825Z,10.43
2019-02-24T01:00:26.300Z,11.70
2019-02-24T01:02:58.781Z,10.63
2019-02-24T01:05:31.539Z,11.50
2019-02-24T01:08:03.957Z,9.60
2019-02-24T01:10:36.346Z,10.03
2019-02-24T01:13:09.169Z,10.40
2019-02-24T01:15:41.706Z,11.20
2019-02-24T01:18:14.150Z,10.03
2019-02-24T01:20:46.572Z,10.07
2019-02-24T01:23:19.348Z,10.67
2019-02-24T01:25:51.823Z,10.90
2019-02-24T01:28:25.512Z,11.43
2019-02-24T01:30:58.055Z,11.43
2019-02-24T01:33:30.475Z,11.83
2019-02-24T01:36:02.873Z,11.50
2019-02-24T01:38:35.896Z,11.13
2019-02-24T01:41:08.409Z,11.50
2019-02-24T01:43:41.009Z,12.90
2019-02-24T01:46:13.465Z,12.63
2019-02-24T01:48:46.167Z,12.23
2019-02-24T01:51:18.689Z,11.93
2019-02-24T01:53:51.202Z,13.27
2019-02-24T01:56:23.952Z,14.20
2019-02-24T01:58:56.388Z,13.33
2019-02-24T02:01:28.940Z,14.87
2019-02-24T02:04:01.342Z,13.27
2019-02-24T02:06:34.232Z,13.07
2019-02-24T02:09:07.963Z,13.43
2019-02-24T02:11:40.503Z,14.03
2019-02-24T02:14:12.972Z,13.70
2019-02-24T02:16:45.857Z,12.43
2019-02-24T02:19:18.880Z,13.17
2019-02-24T02:21:51.423Z,13.70
2019-02-24T02:24:25.007Z,13.07
2019-02-24T02:27:01.245Z,13.90
2019-02-24T02:29:32.751Z,15.67
2019-02-24T02:32:05.633Z,15.27
2019-02-24T02:34:38.324Z,15.47
2019-02-24T02:37:10.674Z,15.57
2019-02-24T02:39:47.674Z,14.57
2019-02-24T02:42:20.023Z,14.03
2019-02-24T02:44:52.581Z,15.83
2019-02-24T02:47:25.450Z,15.33
2019-02-24T02:49:57.952Z,14.70
2019-02-24T02:52:30.373Z,13.93
2019-02-24T02:55:02.740Z,16.70
2019-02-24T02:57:35.342Z,15.37
2019-02-24T03:00:19.530Z,14.77
2019-02-24T03:02:52.124Z,15.13
2019-02-24T03:05:24.620Z,13.67
2019-02-24T03:08:08.745Z,14.47
2019-02-24T03:10:41.227Z,14.17
2019-02-24T03:13:13.826Z,14.00
2019-02-24T03:15:46.262Z,13.60
2019-02-24T03:18:18.593Z,14.43
2019-02-24T03:20:51.311Z,14.73
2019-02-24T03:23:23.659Z,14.50
2019-02-24T03:25:56.106Z,14.43
2019-02-24T03:28:28.595Z,14.60
2019-02-24T03:31:00.948Z,15.30
2019-02-24T03:33:33.395Z,14.40
2019-02-24T03:36:05.784Z,14.00
2019-02-24T03:38:38.397Z,14.23
2019-02-24T03:41:10.826Z,14.10
2019-02-24T03:43:43.168Z,13.00
2019-02-24T03:46:15.851Z,12.83
2019-02-24T03:48:48.700Z,13.20
2019-02-24T03:51:21.389Z,12.47
2019-02-24T03:53:54.695Z,12.87
2019-02-24T03:56:27.819Z,13.83
2019-02-24T03:59:00.282Z,13.10
2019-02-24T04:01:32.656Z,13.93
2019-02-24T04:04:05.159Z,13.60
2019-02-24T04:06:37.697Z,13.93
2019-02-24T04:09:11.775Z,14.03
2019-02-24T04:11:44.310Z,14.83
2019-02-24T04:14:16.758Z,15.60
2019-02-24T04:16:49.506Z,16.00
2019-02-24T04:19:21.928Z,15.07
2019-02-24T04:21:54.296Z,14.10
2019-02-24T04:24:26.790Z,14.70
2019-02-24T04:26:59.212Z,14.57
2019-02-24T04:29:31.645Z,14.37
2019-02-24T04:32:07.157Z,15.87
2019-02-24T04:34:39.559Z,15.23
2019-02-24T04:37:11.999Z,15.77
2019-02-24T04:39:44.623Z,15.00
2019-02-24T04:42:17.162Z,15.87
2019-02-24T04:44:49.883Z,15.40
2019-02-24T04:47:22.250Z,15.30
2019-02-24T04:49:54.545Z,14.20
2019-02-24T04:52:27.032Z,15.53
2019-02-24T04:54:59.494Z,17.37
2019-02-24T04:57:31.831Z,16.57
2019-02-24T05:00:05.739Z,18.23
2019-02-24T05:02:38.088Z,17.50
2019-02-24T05:05:10.589Z,16.63
2019-02-24T05:07:43.315Z,16.93
2019-02-24T05:10:16.031Z,15.63
2019-02-24T05:12:48.580Z,16.47
2019-02-24T05:15:21.009Z,16.10
2019-02-24T05:17:53.610Z,16.13
2019-02-24T05:20:25.920Z,15.90
2019-02-24T05:23:00.046Z,15.80
2019-02-24T05:25:32.433Z,16.47
2019-02-24T05:28:04.843Z,15.23
2019-02-24T05:30:37.348Z,16.10
2019-02-24T05:33:09.801Z,16.50
2019-02-24T05:35:42.129Z,16.20
2019-02-24T05:38:14.536Z,15.60
2019-02-24T05:40:47.125Z,14.70
2019-02-24T05:43:19.515Z,15.23
2019-02-24T05:45:52.056Z,15.47
2019-02-24T05:48:24.401Z,15.67
2019-02-24T05:50:56.735Z,15.80
2019-02-24T05:53:29.510Z,16.00
2019-02-24T05:56:02.274Z,15.83
2019-02-24T05:58:34.839Z,15.67
2019-02-24T06:01:07.101Z,15.30
2019-02-24T06:03:39.486Z,15.23
2019-02-24T06:06:12.006Z,16.27
2019-02-24T06:08:44.551Z,15.47
2019-02-24T06:11:17.106Z,16.67
2019-02-24T06:13:49.402Z,15.47
2019-02-24T06:16:21.869Z,17.13
2019-02-24T06:18:54.343Z,17.67
2019-02-24T06:21:26.770Z,16.37
2019-02-24T06:23:59.338Z,17.33
2019-02-24T06:26:32.157Z,17.07
2019-02-24T06:29:04.941Z,16.83
2019-02-24T06:31:37.678Z,17.73
2019-02-24T06:34:10.304Z,17.40
2019-02-24T06:36:42.825Z,20.87
2019-02-24T06:39:15.401Z,22.47
2019-02-24T06:41:47.981Z,16.13
2019-02-24T06:44:20.549Z,14.30
2019-02-24T06:46:52.974Z,13.17
2019-02-24T06:49:25.698Z,13.50
2019-02-24T06:51:58.063Z,12.67
2019-02-24T06:54:30.585Z,12.10
2019-02-24T06:57:03.120Z,12.33
2019-02-24T06:59:35.732Z,12.00
2019-02-24T07:02:08.131Z,12.53
2019-02-24T07:04:40.648Z,12.77
2019-02-24T07:07:12.907Z,12.67
2019-02-24T07:09:45.495Z,14.20
2019-02-24T07:12:18.094Z,13.40
2019-02-24T07:14:50.559Z,13.00
2019-02-24T07:17:23.060Z,12.80
2019-02-24T07:19:58.801Z,12.73
2019-02-24T07:22:31.354Z,12.30
2019-02-24T07:25:03.837Z,12.37
2019-02-24T07:27:36.312Z,12.97
2019-02-24T07:30:09.404Z,12.33
2019-02-24T07:32:41.893Z,12.03
2019-02-24T07:35:14.384Z,13.07
2019-02-24T07:37:46.842Z,13.00
2019-02-24T07:40:19.348Z,13.57
2019-02-24T07:42:51.683Z,14.43
2019-02-24T07:45:24.448Z,13.60
2019-02-24T07:47:56.913Z,13.57
2019-02-24T07:50:29.714Z,14.07
2019-02-24T07:53:02.204Z,14.33
2019-02-24T07:55:34.691Z,14.00
2019-02-24T07:58:07.122Z,13.63
2019-02-24T08:00:39.704Z,14.00
2019-02-24T08:03:12.362Z,12.93
2019-02-24T08:05:44.946Z,14.70
2019-02-24T08:08:17.378Z,14.40
2019-02-24T08:10:49.808Z,19.87
2019-02-24T08:13:22.457Z,25.80
2019-02-24T08:15:55.157Z,15.27
2019-02-24T08:18:27.742Z,14.93
2019-02-24T08:21:00.412Z,14.87
2019-02-24T08:23:33.020Z,14.60
2019-02-24T08:26:05.694Z,14.40
2019-02-24T08:28:38.181Z,15.07
2019-02-24T08:31:10.653Z,15.30
2019-02-24T08:33:43.389Z,14.67
2019-02-24T08:36:15.744Z,14.80
2019-02-24T08:38:48.350Z,14.33
2019-02-24T08:41:20.738Z,14.50
2019-02-24T08:43:53.303Z,13.17
2019-02-24T08:46:25.707Z,13.27
2019-02-24T08:48:58.190Z,14.07
2019-02-24T08:51:30.691Z,13.90
2019-02-24T08:54:03.027Z,14.57
2019-02-24T08:56:35.828Z,14.07
2019-02-24T08:59:08.461Z,14.40
2019-02-24T09:01:40.798Z,17.07
2019-02-24T09:04:13.389Z,15.30
2019-02-24T09:06:46.053Z,14.07
2019-02-24T09:09:18.614Z,15.87
2019-02-24T09:11:51.748Z,23.70
2019-02-24T09:14:24.237Z,19.37
2019-02-24T09:16:56.802Z,18.67
2019-02-24T09:19:29.217Z,17.50
2019-02-24T09:22:01.859Z,14.43
2019-02-24T09:24:34.240Z,15.93
2019-02-24T09:27:07.118Z,12.37
2019-02-24T09:29:39.703Z,13.77
2019-02-24T09:32:12.346Z,14.57
2019-02-24T09:34:44.716Z,15.67
2019-02-24T09:37:17.125Z,15.70
2019-02-24T09:39:49.585Z,15.27
2019-02-24T09:42:22.089Z,14.63
2019-02-24T09:44:54.636Z,14.30
2019-02-24T09:47:27.198Z,14.83
2019-02-24T09:49:59.603Z,14.07
2019-02-24T09:52:32.325Z,15.37
2019-02-24T09:55:05.137Z,14.93
2019-02-24T09:57:37.960Z,15.73
2019-02-24T10:00:11.519Z,20.50
2019-02-24T10:02:44.300Z,21.10
2019-02-24T10:05:16.861Z,14.07
2019-02-24T10:07:49.398Z,14.63
2019-02-24T10:10:21.744Z,15.47
2019-02-24T10:12:54.596Z,15.10
2019-02-24T10:15:26.966Z,15.77
2019-02-24T10:17:59.498Z,16.30
2019-02-24T10:20:32.010Z,18.53
2019-02-24T10:23:04.757Z,17.80
2019-02-24T10:25:37.222Z,23.10
2019-02-24T10:28:09.975Z,17.53
2019-02-24T10:30:42.473Z,15.00
2019-02-24T10:33:14.982Z,14.20
2019-02-24T10:35:47.341Z,13.03
2019-02-24T10:38:19.914Z,14.30
2019-02-24T10:40:52.379Z,13.87
2019-02-24T10:43:27.082Z,12.67
2019-02-24T10:46:00.486Z,12.90
2019-02-24T10:48:33.114Z,13.47
2019-02-24T10:51:05.609Z,12.73
2019-02-24T10:53:38.453Z,11.20
2019-02-24T10:56:10.830Z,23.57
2019-02-24T10:58:43.335Z,18.53
2019-02-24T11:01:15.838Z,12.70
2019-02-24T11:03:48.328Z,12.73
2019-02-24T11:06:21.069Z,12.47
2019-02-24T11:08:54.057Z,11.80
2019-02-24T11:11:26.678Z,12.33
2019-02-24T11:13:59.781Z,11.90
2019-02-24T11:16:32.635Z,12.17
2019-02-24T11:19:05.452Z,15.60
2019-02-24T11:21:38.178Z,13.20
2019-02-24T11:24:11.076Z,12.63
2019-02-24T11:26:43.640Z,17.57
2019-02-24T11:29:16.160Z,13.50
2019-02-24T11:31:48.741Z,12.37
2019-02-24T11:34:21.384Z,11.03
2019-02-24T11:36:53.776Z,11.47
2019-02-24T11:39:26.235Z,11.17
2019-02-24T11:41:59.478Z,10.13
2019-02-24T11:44:32.007Z,11.23
2019-02-24T11:47:04.482Z,10.77
2019-02-24T11:49:37.232Z,12.23
2019-02-24T11:52:10.050Z,11.13
2019-02-24T11:54:42.640Z,11.27
2019-02-24T11:57:16.370Z,12.10
2019-02-24T11:59:49.826Z,24.07
2019-02-24T12:02:22.202Z,14.27
2019-02-24T12:04:54.592Z,36.37
2019-02-24T12:07:27.043Z,18.50
2019-02-24T12:09:59.487Z,29.70
2019-02-24T12:12:32.065Z,17.77
2019-02-24T12:15:04.856Z,15.93
2019-02-24T12:17:37.473Z,14.40
2019-02-24T12:20:11.752Z,12.03
2019-02-24T12:22:44.300Z,12.43
2019-02-24T12:25:16.988Z,12.77
2019-02-24T12:27:49.497Z,13.57
2019-02-24T12:30:22.083Z,12.70
2019-02-24T12:32:54.655Z,12.77
2019-02-24T12:35:27.142Z,12.77
2019-02-24T12:37:59.695Z,13.53
2019-02-24T12:40:32.114Z,13.73
2019-02-24T12:43:04.460Z,12.43
2019-02-24T12:45:37.084Z,12.60
2019-02-24T12:48:09.501Z,12.07
2019-02-24T12:50:42.054Z,12.10
2019-02-24T12:53:14.545Z,13.57
2019-02-24T12:55:46.952Z,12.90
2019-02-24T12:58:19.432Z,12.77
2019-02-24T13:00:51.889Z,11.47
2019-02-24T13:03:24.370Z,12.23
2019-02-24T13:05:56.811Z,11.30
2019-02-24T13:08:29.323Z,12.90
2019-02-24T13:11:01.792Z,15.50
2019-02-24T13:13:34.369Z,14.63
2019-02-24T13:16:07.017Z,13.17
2019-02-24T13:18:39.759Z,11.10
2019-02-24T13:21:12.524Z,11.83
2019-02-24T13:23:45.359Z,11.60
2019-02-24T13:26:18.001Z,11.47
2019-02-24T13:28:50.802Z,14.47
2019-02-24T13:31:23.492Z,12.23
2019-02-24T13:33:56.093Z,11.70
2019-02-24T13:36:28.655Z,11.57
2019-02-24T13:39:01.180Z,11.33
2019-02-24T13:41:33.732Z,10.70
2019-02-24T13:44:06.384Z,10.40
2019-02-24T13:46:38.885Z,11.17
2019-02-24T13:49:11.520Z,13.90
2019-02-24T13:51:44.047Z,11.10
2019-02-24T13:54:16.442Z,10.43
2019-02-24T13:56:49.069Z,10.67
2019-02-24T13:59:21.663Z,11.00
2019-02-24T14:01:54.220Z,10.97
2019-02-24T14:04:26.803Z,12.13
2019-02-24T14:06:59.218Z,11.93
2019-02-24T14:09:31.820Z,10.23
2019-02-24T14:12:04.359Z,10.47
2019-02-24T14:14:36.871Z,9.90
2019-02-24T14:17:09.584Z,10.13
2019-02-24T14:19:41.945Z,9.67
2019-02-24T14:22:14.471Z,11.13
2019-02-24T14:24:47.099Z,10.43
2019-02-24T14:27:19.711Z,10.70
2019-02-24T14:29:52.405Z,9.93
2019-02-24T14:32:32.850Z,10.00
2019-02-24T14:34:59.210Z,9.20
2019-02-24T14:37:31.862Z,9.57
2019-02-24T14:40:04.635Z,9.13
2019-02-24T14:42:37.536Z,8.87
2019-02-24T14:45:13.737Z,10.33
2019-02-24T14:47:46.234Z,10.10
2019-02-24T14:50:18.767Z,8.87
2019-02-24T14:52:51.215Z,9.73
2019-02-24T14:55:23.809Z,8.73
2019-02-24T14:57:56.375Z,9.13
2019-02-24T15:00:28.889Z,9.13
2019-02-24T15:03:01.566Z,9.13
2019-02-24T15:05:33.966Z,8.87
2019-02-24T15:08:06.383Z,9.10
2019-02-24T15:10:38.775Z,9.43
2019-02-24T15:13:11.247Z,10.23
2019-02-24T15:15:43.598Z,10.20
2019-02-24T15:18:16.976Z,10.07
2019-02-24T15:20:49.483Z,9.97
2019-02-24T15:23:21.901Z,10.30
2019-02-24T15:25:54.300Z,10.03
2019-02-24T15:28:26.984Z,13.90
2019-02-24T15:30:59.354Z,10.90
2019-02-24T15:33:31.921Z,8.40
2019-02-24T15:36:04.582Z,9.17
2019-02-24T15:38:37.081Z,9.17
2019-02-24T15:41:09.634Z,9.63
2019-02-24T15:43:42.231Z,10.63
2019-02-24T15:46:14.915Z,9.80
2019-02-24T15:48:47.467Z,10.50
2019-02-24T15:51:20.598Z,10.50
2019-02-24T15:53:53.310Z,9.80
2019-02-24T15:56:25.852Z,9.43
2019-02-24T15:58:58.183Z,8.07
2019-02-24T16:01:30.460Z,8.93
2019-02-24T16:04:02.946Z,10.23
2019-02-24T16:06:37.403Z,9.17
2019-02-24T16:09:10.654Z,12.73
2019-02-24T16:11:45.894Z,13.13
2019-02-24T16:14:18.251Z,11.63
2019-02-24T16:16:50.712Z,16.17
2019-02-24T16:19:23.353Z,10.17
2019-02-24T16:21:56.112Z,13.73
2019-02-24T16:24:28.592Z,10.63
2019-02-24T16:27:01.117Z,10.10
2019-02-24T16:29:33.878Z,9.83
2019-02-24T16:32:06.357Z,9.97
2019-02-24T16:34:38.842Z,10.17
2019-02-24T16:37:11.282Z,9.20
2019-02-24T16:39:43.803Z,9.70
2019-02-24T16:42:16.282Z,9.27
2019-02-24T16:44:48.775Z,19.30
2019-02-24T16:47:21.650Z,9.90
2019-02-24T16:49:54.340Z,10.93
2019-02-24T16:52:26.873Z,32.67
2019-02-24T16:54:59.354Z,22.70
2019-02-24T16:57:31.819Z,18.20
2019-02-24T17:00:05.873Z,12.17
2019-02-24T17:02:38.650Z,9.63
2019-02-24T17:05:11.458Z,7.67
2019-02-24T17:07:43.919Z,9.13
2019-02-24T17:10:18.518Z,8.47
2019-02-24T17:12:50.961Z,10.30
2019-02-24T17:15:24.346Z,7.53
2019-02-24T17:17:58.997Z,10.27
2019-02-24T17:20:31.778Z,8.23
2019-02-24T17:23:04.678Z,10.23
2019-02-24T17:25:37.523Z,8.07
2019-02-24T17:28:09.910Z,7.57
2019-02-24T17:30:42.947Z,7.67
2019-02-24T17:33:15.404Z,8.67
2019-02-24T17:35:47.925Z,8.63
2019-02-24T17:38:20.643Z,7.73
2019-02-24T17:40:53.233Z,10.23
2019-02-24T17:43:25.603Z,14.20
2019-02-24T17:45:58.352Z,11.53
2019-02-24T17:48:31.965Z,7.10
2019-02-24T17:51:04.685Z,7.33
2019-02-24T17:53:37.160Z,7.43
2019-02-24T17:56:09.684Z,7.23
2019-02-24T17:58:41.951Z,6.67
2019-02-24T18:01:33.198Z,6.40
2019-02-24T18:04:07.557Z,7.07
2019-02-24T18:06:40.384Z,7.17
2019-02-24T18:09:13.194Z,7.87
2019-02-24T18:11:45.725Z,6.63
2019-02-24T18:14:17.960Z,6.60
2019-02-24T18:16:50.685Z,6.70
2019-02-24T18:19:23.125Z,6.87
2019-02-24T18:21:56.783Z,7.27
2019-02-24T18:24:29.159Z,9.77
2019-02-24T18:27:01.540Z,9.73
2019-02-24T18:29:33.994Z,8.37
2019-02-24T18:32:06.535Z,7.90
2019-02-24T18:34:39.126Z,7.57
2019-02-24T18:37:12.617Z,7.60
2019-02-24T18:39:45.188Z,7.77
2019-02-24T18:42:17.841Z,8.43
2019-02-24T18:44:50.864Z,8.50
2019-02-24T18:47:24.100Z,7.80
2019-02-24T18:49:56.598Z,8.90
2019-02-24T18:52:29.492Z,9.03
2019-02-24T18:55:02.506Z,8.63
2019-02-24T18:57:35.060Z,10.23
2019-02-24T19:00:10.772Z,9.40
2019-02-24T19:02:43.196Z,8.70
2019-02-24T19:05:16.264Z,8.50
2019-02-24T19:07:48.913Z,9.87
2019-02-24T19:10:21.677Z,8.27
2019-02-24T19:12:54.103Z,8.80
2019-02-24T19:15:26.814Z,8.87
2019-02-24T19:17:59.817Z,8.43
2019-02-24T19:20:32.388Z,8.53
2019-02-24T19:23:04.978Z,9.33
2019-02-24T19:25:37.561Z,9.30
2019-02-24T19:28:09.986Z,8.43
2019-02-24T19:30:43.489Z,7.87
2019-02-24T19:33:16.819Z,7.53
2019-02-24T19:35:49.235Z,8.67
2019-02-24T19:38:21.615Z,8.03
2019-02-24T19:40:54.214Z,8.90
2019-02-24T19:43:26.644Z,8.70
2019-02-24T19:45:59.160Z,8.40
2019-02-24T19:48:31.778Z,14.00
2019-02-24T19:51:04.077Z,10.50
2019-02-24T19:53:36.870Z,8.37
2019-02-24T19:56:09.461Z,9.53
2019-02-24T19:58:42.215Z,23.00
2019-02-24T20:01:14.869Z,14.17
2019-02-24T20:03:47.417Z,10.10
2019-02-24T20:06:20.139Z,8.57
2019-02-24T20:08:52.494Z,10.00
2019-02-24T20:11:25.344Z,10.40
2019-02-24T20:13:58.249Z,23.23
2019-02-24T20:16:30.663Z,13.87
2019-02-24T20:19:03.444Z,9.07
2019-02-24T20:21:47.150Z,21.53
2019-02-24T20:24:21.126Z,22.40
2019-02-24T20:26:53.535Z,12.37
2019-02-24T20:29:26.072Z,9.57
2019-02-24T20:31:58.684Z,9.30
2019-02-24T20:34:31.638Z,9.13
2019-02-24T20:37:04.237Z,7.90
2019-02-24T20:39:36.951Z,8.53
2019-02-24T20:42:09.332Z,8.53
2019-02-24T20:44:41.942Z,11.57
2019-02-24T20:47:14.489Z,8.50
2019-02-24T20:49:46.983Z,9.73
2019-02-24T20:52:19.748Z,10.33
2019-02-24T20:54:52.400Z,12.93
2019-02-24T20:57:25.011Z,9.87
2019-02-24T20:59:57.951Z,9.87
2019-02-24T21:02:30.263Z,8.97
2019-02-24T21:05:02.704Z,9.43
2019-02-24T21:07:35.290Z,8.70
2019-02-24T21:10:08.614Z,8.30
2019-02-24T21:12:43.346Z,9.17
2019-02-24T21:15:15.979Z,8.47
2019-02-24T21:17:48.525Z,8.90
2019-02-24T21:20:23.968Z,9.50
2019-02-24T21:22:56.512Z,8.20
2019-02-24T21:25:29.310Z,8.73
2019-02-24T21:28:01.814Z,9.07
2019-02-24T21:30:34.241Z,8.80
2019-02-24T21:33:06.975Z,9.13
2019-02-24T21:35:39.522Z,8.77
2019-02-24T21:38:12.056Z,8.63
2019-02-24T21:40:45.070Z,8.33
2019-02-24T21:43:17.428Z,8.87
2019-02-24T21:45:50.947Z,9.50
2019-02-24T21:48:23.641Z,9.13
2019-02-24T21:50:56.050Z,10.10
2019-02-24T21:53:28.778Z,9.17
2019-02-24T21:56:01.348Z,20.83
2019-02-24T21:58:33.977Z,10.43
2019-02-24T22:01:26.999Z,9.50
2019-02-24T22:03:59.579Z,9.83
2019-02-24T22:06:32.063Z,9.73
2019-02-24T22:09:06.514Z,9.67
2019-02-24T22:11:39.129Z,9.70
2019-02-24T22:14:11.701Z,9.67
2019-02-24T22:16:44.281Z,9.17
2019-02-24T22:19:16.557Z,9.43
2019-02-24T22:21:48.958Z,10.67
2019-02-24T22:24:21.342Z,10.30
2019-02-24T22:26:54.077Z,11.00
2019-02-24T22:29:26.652Z,10.40
2019-02-24T22:31:59.156Z,10.93
2019-02-24T22:34:31.712Z,9.83
2019-02-24T22:37:04.299Z,10.67
2019-02-24T22:39:36.799Z,10.40
2019-02-24T22:42:09.352Z,12.20
2019-02-24T22:44:42.017Z,10.43
2019-02-24T22:47:14.377Z,10.03
2019-02-24T22:49:46.834Z,11.37
2019-02-24T22:52:19.279Z,11.33
2019-02-24T22:54:51.767Z,11.27
2019-02-24T22:57:24.124Z,11.33
2019-02-24T22:59:56.534Z,10.87
2019-02-24T23:02:29.469Z,11.47
2019-02-24T23:05:01.905Z,11.80
2019-02-24T23:07:34.655Z,11.33
2019-02-24T23:10:07.475Z,12.20
2019-02-24T23:12:39.888Z,11.77
2019-02-24T23:15:12.629Z,11.67
2019-02-24T23:17:45.074Z,11.70
2019-02-24T23:20:17.639Z,12.67
2019-02-24T23:22:50.037Z,13.07
2019-02-24T23:25:22.531Z,12.97
2019-02-24T23:27:55.110Z,19.03
2019-02-24T23:30:27.416Z,12.80
2019-02-24T23:32:59.859Z,11.63
2019-02-24T23:35:33.188Z,12.13
2019-02-24T23:38:05.674Z,12.83
2019-02-24T23:40:38.163Z,12.87
2019-02-24T23:43:10.950Z,12.83
2019-02-24T23:45:43.377Z,11.93
2019-02-24T23:48:16.279Z,13.80
2019-02-24T23:50:48.671Z,11.47
2019-02-24T23:53:21.135Z,11.73
2019-02-24T23:55:53.555Z,12.40
2019-02-24T23:58:26.100Z,12.33
